NCAR-RAP Real-Time Weather Data

Output produced by METARs form (06 May 2021  16:05 UTC)
found at http://weather.rap.ucar.edu/surface/
 
KLMT 061553Z 19008KT 10SM CLR 18/M01 A2999 RMK AO2 SLP117 T01831006 $
KLMT 061453Z 18008KT 10SM CLR 17/01 A2998 RMK AO2 SLP111 T01670006 53004 $
KLMT 061353Z 16008KT 10SM CLR 14/01 A2997 RMK AO2 SLP108 T01440006 $
KLMT 061253Z AUTO 12004KT 10SM CLR 11/02 A2996 RMK AO2 SLP105 T01110022 $
KLMT 061153Z AUTO 15006KT 10SM CLR 12/02 A2996 RMK AO2 SLP106 T01220022 10156 20044 56007 $
KLMT 061053Z AUTO 14004KT 10SM CLR 07/00 A2996 RMK AO2 SLP113 T00670000 $
KLMT 060953Z AUTO 00000KT 10SM CLR 06/M01 A2997 RMK AO2 SLP118 T00561011 $
KLMT 060853Z AUTO 08003KT 10SM CLR 07/M01 A2999 RMK AO2 SLP121 T00721006 50001 $
KLMT 060753Z AUTO 04003KT 10SM CLR 09/M02 A2999 RMK AO2 SLP125 T00941017 402721011 $
KLMT 060653Z AUTO 19004KT 10SM CLR 10/M01 A2999 RMK AO2 SLP123 T01001011 $
KLMT 060553Z AUTO 14009KT 10SM CLR 15/M01 A2998 RMK AO2 SLP120 T01501011 10272 20144 51014 $
KLMT 060453Z AUTO 14008KT 10SM CLR 15/M01 A2998 RMK AO2 SLP121 T01501011 $
KLMT 060353Z AUTO 17006KT 10SM CLR 18/M02 A2996 RMK AO2 SLP113 T01781017 $